sensor_id;sensor_type;location;lat;lon;timestamp;P1;durP1;ratioP1;P2;durP2;ratioP2
74371;SDS011;62885;51.374;6.170;2024-01-30T00:00:21;10.45;;;5.32;;
74371;SDS011;62885;51.374;6.170;2024-01-30T00:02:48;10.75;;;5.68;;
74371;SDS011;62885;51.374;6.170;2024-01-30T00:05:14;11.93;;;6.07;;
74371;SDS011;62885;51.374;6.170;2024-01-30T00:07:39;11.88;;;5.82;;
74371;SDS011;62885;51.374;6.170;2024-01-30T00:10:04;10.70;;;5.60;;
74371;SDS011;62885;51.374;6.170;2024-01-30T00:12:31;10.02;;;5.13;;
74371;SDS011;62885;51.374;6.170;2024-01-30T00:14:57;12.95;;;5.60;;
74371;SDS011;62885;51.374;6.170;2024-01-30T00:17:23;9.70;;;5.00;;
74371;SDS011;62885;51.374;6.170;2024-01-30T00:19:50;12.77;;;6.18;;
74371;SDS011;62885;51.374;6.170;2024-01-30T00:22:15;12.75;;;5.20;;
74371;SDS011;62885;51.374;6.170;2024-01-30T00:24:40;11.75;;;5.45;;
74371;SDS011;62885;51.374;6.170;2024-01-30T00:27:06;9.43;;;5.55;;
74371;SDS011;62885;51.374;6.170;2024-01-30T00:29:31;9.85;;;4.63;;
74371;SDS011;62885;51.374;6.170;2024-01-30T00:31:58;11.07;;;4.78;;
74371;SDS011;62885;51.374;6.170;2024-01-30T00:34:24;9.77;;;5.03;;
74371;SDS011;62885;51.374;6.170;2024-01-30T00:36:49;12.32;;;5.30;;
74371;SDS011;62885;51.374;6.170;2024-01-30T00:39:15;12.40;;;5.72;;
74371;SDS011;62885;51.374;6.170;2024-01-30T00:41:41;10.75;;;4.90;;
74371;SDS011;62885;51.374;6.170;2024-01-30T00:44:06;10.10;;;5.38;;
74371;SDS011;62885;51.374;6.170;2024-01-30T00:46:32;10.43;;;4.70;;
74371;SDS011;62885;51.374;6.170;2024-01-30T00:48:57;12.63;;;5.63;;
74371;SDS011;62885;51.374;6.170;2024-01-30T00:51:22;12.23;;;5.13;;
74371;SDS011;62885;51.374;6.170;2024-01-30T00:53:48;10.75;;;5.18;;
74371;SDS011;62885;51.374;6.170;2024-01-30T00:56:13;10.45;;;5.35;;
74371;SDS011;62885;51.374;6.170;2024-01-30T00:58:38;11.90;;;5.45;;
74371;SDS011;62885;51.374;6.170;2024-01-30T01:01:04;12.35;;;5.53;;
74371;SDS011;62885;51.374;6.170;2024-01-30T01:03:29;11.15;;;4.60;;
74371;SDS011;62885;51.374;6.170;2024-01-30T01:05:55;10.10;;;5.00;;
74371;SDS011;62885;51.374;6.170;2024-01-30T01:08:20;12.70;;;4.78;;
74371;SDS011;62885;51.374;6.170;2024-01-30T01:10:48;12.73;;;4.93;;
74371;SDS011;62885;51.374;6.170;2024-01-30T01:13:13;13.18;;;4.85;;
74371;SDS011;62885;51.374;6.170;2024-01-30T01:15:39;14.20;;;4.80;;
74371;SDS011;62885;51.374;6.170;2024-01-30T01:18:04;10.05;;;5.03;;
74371;SDS011;62885;51.374;6.170;2024-01-30T01:20:29;13.02;;;4.60;;
74371;SDS011;62885;51.374;6.170;2024-01-30T01:22:55;8.68;;;4.65;;
74371;SDS011;62885;51.374;6.170;2024-01-30T01:25:20;10.05;;;5.47;;
74371;SDS011;62885;51.374;6.170;2024-01-30T01:27:46;10.10;;;4.53;;
74371;SDS011;62885;51.374;6.170;2024-01-30T01:30:16;14.48;;;5.43;;
74371;SDS011;62885;51.374;6.170;2024-01-30T01:32:46;13.52;;;5.72;;
74371;SDS011;62885;51.374;6.170;2024-01-30T01:35:19;10.55;;;4.65;;
74371;SDS011;62885;51.374;6.170;2024-01-30T01:37:45;12.00;;;5.03;;
74371;SDS011;62885;51.374;6.170;2024-01-30T01:40:10;11.38;;;5.13;;
74371;SDS011;62885;51.374;6.170;2024-01-30T01:42:36;14.35;;;4.57;;
74371;SDS011;62885;51.374;6.170;2024-01-30T01:45:01;9.20;;;5.00;;
74371;SDS011;62885;51.374;6.170;2024-01-30T01:47:27;13.00;;;5.55;;
74371;SDS011;62885;51.374;6.170;2024-01-30T01:49:52;11.63;;;5.40;;
74371;SDS011;62885;51.374;6.170;2024-01-30T01:52:17;12.60;;;5.72;;
74371;SDS011;62885;51.374;6.170;2024-01-30T01:54:43;13.30;;;5.07;;
74371;SDS011;62885;51.374;6.170;2024-01-30T01:57:09;9.73;;;5.47;;
74371;SDS011;62885;51.374;6.170;2024-01-30T01:59:34;11.95;;;4.95;;
74371;SDS011;62885;51.374;6.170;2024-01-30T02:02:00;9.95;;;4.78;;
74371;SDS011;62885;51.374;6.170;2024-01-30T02:04:27;8.77;;;4.43;;
74371;SDS011;62885;51.374;6.170;2024-01-30T02:06:52;9.55;;;5.22;;
74371;SDS011;62885;51.374;6.170;2024-01-30T02:09:18;10.98;;;4.72;;
74371;SDS011;62885;51.374;6.170;2024-01-30T02:11:43;11.85;;;4.40;;
74371;SDS011;62885;51.374;6.170;2024-01-30T02:14:09;10.23;;;5.07;;
74371;SDS011;62885;51.374;6.170;2024-01-30T02:16:34;8.80;;;4.32;;
74371;SDS011;62885;51.374;6.170;2024-01-30T02:18:59;9.18;;;5.40;;
74371;SDS011;62885;51.374;6.170;2024-01-30T02:21:25;8.93;;;5.05;;
74371;SDS011;62885;51.374;6.170;2024-01-30T02:23:50;9.73;;;4.10;;
74371;SDS011;62885;51.374;6.170;2024-01-30T02:26:15;9.70;;;4.65;;
74371;SDS011;62885;51.374;6.170;2024-01-30T02:28:41;10.43;;;5.45;;
74371;SDS011;62885;51.374;6.170;2024-01-30T02:31:06;11.70;;;4.60;;
74371;SDS011;62885;51.374;6.170;2024-01-30T02:33:31;9.07;;;4.72;;
74371;SDS011;62885;51.374;6.170;2024-01-30T02:35:57;12.18;;;5.38;;
74371;SDS011;62885;51.374;6.170;2024-01-30T02:38:23;11.48;;;4.78;;
74371;SDS011;62885;51.374;6.170;2024-01-30T02:40:48;10.32;;;5.05;;
74371;SDS011;62885;51.374;6.170;2024-01-30T02:43:14;11.38;;;5.07;;
74371;SDS011;62885;51.374;6.170;2024-01-30T02:45:41;14.15;;;4.88;;
74371;SDS011;62885;51.374;6.170;2024-01-30T02:48:06;9.90;;;5.15;;
74371;SDS011;62885;51.374;6.170;2024-01-30T02:50:32;11.88;;;5.57;;
74371;SDS011;62885;51.374;6.170;2024-01-30T02:52:57;10.73;;;5.00;;
74371;SDS011;62885;51.374;6.170;2024-01-30T02:55:22;12.23;;;5.65;;
74371;SDS011;62885;51.374;6.170;2024-01-30T02:57:48;10.98;;;4.93;;
74371;SDS011;62885;51.374;6.170;2024-01-30T03:00:13;12.48;;;4.68;;
74371;SDS011;62885;51.374;6.170;2024-01-30T03:02:39;9.77;;;4.35;;
74371;SDS011;62885;51.374;6.170;2024-01-30T03:05:05;7.95;;;3.90;;
74371;SDS011;62885;51.374;6.170;2024-01-30T03:07:31;10.02;;;4.90;;
74371;SDS011;62885;51.374;6.170;2024-01-30T03:09:56;8.88;;;4.53;;
74371;SDS011;62885;51.374;6.170;2024-01-30T03:12:22;9.50;;;5.05;;
74371;SDS011;62885;51.374;6.170;2024-01-30T03:14:47;11.65;;;4.53;;
74371;SDS011;62885;51.374;6.170;2024-01-30T03:17:14;12.57;;;4.85;;
74371;SDS011;62885;51.374;6.170;2024-01-30T03:19:39;11.25;;;4.82;;
74371;SDS011;62885;51.374;6.170;2024-01-30T03:22:05;10.43;;;4.95;;
74371;SDS011;62885;51.374;6.170;2024-01-30T03:24:31;10.18;;;5.60;;
74371;SDS011;62885;51.374;6.170;2024-01-30T03:26:56;8.90;;;4.22;;
74371;SDS011;62885;51.374;6.170;2024-01-30T03:29:21;9.35;;;4.85;;
74371;SDS011;62885;51.374;6.170;2024-01-30T03:31:47;9.45;;;4.63;;
74371;SDS011;62885;51.374;6.170;2024-01-30T03:34:12;8.55;;;4.40;;
74371;SDS011;62885;51.374;6.170;2024-01-30T03:36:38;11.00;;;4.90;;
74371;SDS011;62885;51.374;6.170;2024-01-30T03:39:03;10.30;;;4.28;;
74371;SDS011;62885;51.374;6.170;2024-01-30T03:41:28;12.00;;;5.07;;
74371;SDS011;62885;51.374;6.170;2024-01-30T03:43:54;10.88;;;4.90;;
74371;SDS011;62885;51.374;6.170;2024-01-30T03:46:21;9.85;;;4.40;;
74371;SDS011;62885;51.374;6.170;2024-01-30T03:48:47;12.77;;;5.18;;
74371;SDS011;62885;51.374;6.170;2024-01-30T03:51:12;10.00;;;4.70;;
74371;SDS011;62885;51.374;6.170;2024-01-30T03:53:40;8.57;;;4.63;;
74371;SDS011;62885;51.374;6.170;2024-01-30T03:56:06;10.73;;;5.43;;
74371;SDS011;62885;51.374;6.170;2024-01-30T03:58:31;8.98;;;4.88;;
74371;SDS011;62885;51.374;6.170;2024-01-30T04:00:57;7.78;;;4.45;;
74371;SDS011;62885;51.374;6.170;2024-01-30T04:03:22;9.57;;;3.92;;
74371;SDS011;62885;51.374;6.170;2024-01-30T04:05:48;11.40;;;4.25;;
74371;SDS011;62885;51.374;6.170;2024-01-30T04:08:13;8.65;;;4.15;;
74371;SDS011;62885;51.374;6.170;2024-01-30T04:10:38;11.05;;;4.72;;
74371;SDS011;62885;51.374;6.170;2024-01-30T04:13:04;10.52;;;5.35;;
74371;SDS011;62885;51.374;6.170;2024-01-30T04:15:29;7.97;;;4.07;;
74371;SDS011;62885;51.374;6.170;2024-01-30T04:17:57;11.02;;;4.45;;
74371;SDS011;62885;51.374;6.170;2024-01-30T04:20:24;11.57;;;4.53;;
74371;SDS011;62885;51.374;6.170;2024-01-30T04:22:49;9.68;;;4.90;;
74371;SDS011;62885;51.374;6.170;2024-01-30T04:25:14;8.95;;;4.38;;
74371;SDS011;62885;51.374;6.170;2024-01-30T04:27:40;9.25;;;4.60;;
74371;SDS011;62885;51.374;6.170;2024-01-30T04:30:06;9.18;;;4.28;;
74371;SDS011;62885;51.374;6.170;2024-01-30T04:32:32;10.02;;;4.32;;
74371;SDS011;62885;51.374;6.170;2024-01-30T04:34:58;12.20;;;4.05;;
74371;SDS011;62885;51.374;6.170;2024-01-30T04:37:23;8.00;;;3.95;;
74371;SDS011;62885;51.374;6.170;2024-01-30T04:39:49;8.43;;;4.85;;
74371;SDS011;62885;51.374;6.170;2024-01-30T04:42:14;9.15;;;4.50;;
74371;SDS011;62885;51.374;6.170;2024-01-30T04:44:39;11.52;;;4.05;;
74371;SDS011;62885;51.374;6.170;2024-01-30T04:47:05;9.48;;;4.32;;
74371;SDS011;62885;51.374;6.170;2024-01-30T04:49:33;9.30;;;3.78;;
74371;SDS011;62885;51.374;6.170;2024-01-30T04:51:58;13.25;;;4.65;;
74371;SDS011;62885;51.374;6.170;2024-01-30T04:54:24;8.40;;;4.18;;
74371;SDS011;62885;51.374;6.170;2024-01-30T04:56:49;10.57;;;5.20;;
74371;SDS011;62885;51.374;6.170;2024-01-30T04:59:14;13.50;;;4.97;;
74371;SDS011;62885;51.374;6.170;2024-01-30T05:01:40;8.75;;;4.75;;
74371;SDS011;62885;51.374;6.170;2024-01-30T05:04:08;9.73;;;4.65;;
74371;SDS011;62885;51.374;6.170;2024-01-30T05:06:34;9.45;;;4.32;;
74371;SDS011;62885;51.374;6.170;2024-01-30T05:08:59;10.60;;;4.95;;
74371;SDS011;62885;51.374;6.170;2024-01-30T05:11:24;9.85;;;4.57;;
74371;SDS011;62885;51.374;6.170;2024-01-30T05:13:50;9.43;;;4.22;;
74371;SDS011;62885;51.374;6.170;2024-01-30T05:16:15;9.57;;;4.28;;
74371;SDS011;62885;51.374;6.170;2024-01-30T05:18:40;9.88;;;4.45;;
74371;SDS011;62885;51.374;6.170;2024-01-30T05:21:06;9.48;;;4.43;;
74371;SDS011;62885;51.374;6.170;2024-01-30T05:23:31;11.05;;;4.10;;
74371;SDS011;62885;51.374;6.170;2024-01-30T05:25:57;8.95;;;4.45;;
74371;SDS011;62885;51.374;6.170;2024-01-30T05:28:22;10.13;;;4.78;;
74371;SDS011;62885;51.374;6.170;2024-01-30T05:30:50;10.55;;;4.30;;
74371;SDS011;62885;51.374;6.170;2024-01-30T05:33:15;8.00;;;4.40;;
74371;SDS011;62885;51.374;6.170;2024-01-30T05:35:40;10.52;;;4.32;;
74371;SDS011;62885;51.374;6.170;2024-01-30T05:38:06;11.30;;;4.75;;
74371;SDS011;62885;51.374;6.170;2024-01-30T05:40:31;7.53;;;3.80;;
74371;SDS011;62885;51.374;6.170;2024-01-30T05:42:56;9.90;;;3.80;;
74371;SDS011;62885;51.374;6.170;2024-01-30T05:45:27;12.07;;;5.35;;
74371;SDS011;62885;51.374;6.170;2024-01-30T05:47:53;9.18;;;4.28;;
74371;SDS011;62885;51.374;6.170;2024-01-30T05:50:19;14.15;;;5.20;;
74371;SDS011;62885;51.374;6.170;2024-01-30T05:52:48;13.10;;;3.88;;
74371;SDS011;62885;51.374;6.170;2024-01-30T05:55:13;11.57;;;5.20;;
74371;SDS011;62885;51.374;6.170;2024-01-30T05:57:39;9.73;;;5.22;;
74371;SDS011;62885;51.374;6.170;2024-01-30T06:00:04;11.98;;;4.90;;
74371;SDS011;62885;51.374;6.170;2024-01-30T06:02:31;7.68;;;4.20;;
74371;SDS011;62885;51.374;6.170;2024-01-30T06:04:56;12.02;;;4.80;;
74371;SDS011;62885;51.374;6.170;2024-01-30T06:07:22;9.02;;;4.57;;
74371;SDS011;62885;51.374;6.170;2024-01-30T06:09:47;9.23;;;4.68;;
74371;SDS011;62885;51.374;6.170;2024-01-30T06:12:13;9.80;;;4.50;;
74371;SDS011;62885;51.374;6.170;2024-01-30T06:14:38;10.88;;;4.50;;
74371;SDS011;62885;51.374;6.170;2024-01-30T06:17:04;8.65;;;4.70;;
74371;SDS011;62885;51.374;6.170;2024-01-30T06:19:30;10.80;;;4.40;;
74371;SDS011;62885;51.374;6.170;2024-01-30T06:21:55;10.57;;;4.10;;
74371;SDS011;62885;51.374;6.170;2024-01-30T06:24:23;11.48;;;4.72;;
74371;SDS011;62885;51.374;6.170;2024-01-30T06:26:48;8.23;;;4.60;;
74371;SDS011;62885;51.374;6.170;2024-01-30T06:29:16;9.73;;;4.25;;
74371;SDS011;62885;51.374;6.170;2024-01-30T06:31:41;7.32;;;3.88;;
74371;SDS011;62885;51.374;6.170;2024-01-30T06:34:08;11.23;;;4.13;;
74371;SDS011;62885;51.374;6.170;2024-01-30T06:36:33;9.05;;;4.28;;
74371;SDS011;62885;51.374;6.170;2024-01-30T06:38:59;12.57;;;5.15;;
74371;SDS011;62885;51.374;6.170;2024-01-30T06:41:24;12.98;;;5.10;;
74371;SDS011;62885;51.374;6.170;2024-01-30T06:43:50;8.98;;;4.32;;
74371;SDS011;62885;51.374;6.170;2024-01-30T06:46:15;10.35;;;4.90;;
74371;SDS011;62885;51.374;6.170;2024-01-30T06:48:43;8.25;;;4.57;;
74371;SDS011;62885;51.374;6.170;2024-01-30T06:51:10;9.77;;;4.70;;
74371;SDS011;62885;51.374;6.170;2024-01-30T06:53:36;12.63;;;4.75;;
74371;SDS011;62885;51.374;6.170;2024-01-30T06:56:01;11.73;;;5.05;;
74371;SDS011;62885;51.374;6.170;2024-01-30T06:58:27;10.52;;;4.90;;
74371;SDS011;62885;51.374;6.170;2024-01-30T07:00:52;10.57;;;4.38;;
74371;SDS011;62885;51.374;6.170;2024-01-30T07:03:18;10.95;;;5.63;;
74371;SDS011;62885;51.374;6.170;2024-01-30T07:05:43;8.38;;;4.78;;
74371;SDS011;62885;51.374;6.170;2024-01-30T07:08:08;10.02;;;4.38;;
74371;SDS011;62885;51.374;6.170;2024-01-30T07:10:34;11.80;;;4.50;;
74371;SDS011;62885;51.374;6.170;2024-01-30T07:13:00;11.32;;;4.82;;
74371;SDS011;62885;51.374;6.170;2024-01-30T07:15:25;9.52;;;4.82;;
74371;SDS011;62885;51.374;6.170;2024-01-30T07:17:51;9.57;;;4.38;;
74371;SDS011;62885;51.374;6.170;2024-01-30T07:20:16;12.15;;;4.22;;
74371;SDS011;62885;51.374;6.170;2024-01-30T07:22:44;11.35;;;4.78;;
74371;SDS011;62885;51.374;6.170;2024-01-30T07:25:10;8.98;;;4.18;;
74371;SDS011;62885;51.374;6.170;2024-01-30T07:27:35;11.00;;;4.65;;
74371;SDS011;62885;51.374;6.170;2024-01-30T07:30:01;12.90;;;4.25;;
74371;SDS011;62885;51.374;6.170;2024-01-30T07:32:27;10.15;;;4.60;;
74371;SDS011;62885;51.374;6.170;2024-01-30T07:34:52;8.65;;;4.13;;
74371;SDS011;62885;51.374;6.170;2024-01-30T07:37:18;9.68;;;4.55;;
74371;SDS011;62885;51.374;6.170;2024-01-30T07:39:44;8.55;;;4.13;;
74371;SDS011;62885;51.374;6.170;2024-01-30T07:42:09;9.27;;;4.50;;
74371;SDS011;62885;51.374;6.170;2024-01-30T07:44:35;8.90;;;3.97;;
74371;SDS011;62885;51.374;6.170;2024-01-30T07:47:01;8.27;;;4.65;;
74371;SDS011;62885;51.374;6.170;2024-01-30T07:49:26;8.50;;;3.95;;
74371;SDS011;62885;51.374;6.170;2024-01-30T07:51:51;9.13;;;4.38;;
74371;SDS011;62885;51.374;6.170;2024-01-30T07:54:17;9.05;;;4.22;;
74371;SDS011;62885;51.374;6.170;2024-01-30T07:56:42;9.30;;;4.85;;
74371;SDS011;62885;51.374;6.170;2024-01-30T08:01:40;9.02;;;4.97;;
74371;SDS011;62885;51.374;6.170;2024-01-30T08:04:05;7.97;;;3.72;;
74371;SDS011;62885;51.374;6.170;2024-01-30T08:06:30;11.13;;;4.50;;
74371;SDS011;62885;51.374;6.170;2024-01-30T08:08:56;8.77;;;4.75;;
74371;SDS011;62885;51.374;6.170;2024-01-30T08:11:22;9.18;;;4.45;;
74371;SDS011;62885;51.374;6.170;2024-01-30T08:13:51;8.38;;;4.18;;
74371;SDS011;62885;51.374;6.170;2024-01-30T08:16:17;8.15;;;4.45;;
74371;SDS011;62885;51.374;6.170;2024-01-30T08:18:42;12.38;;;4.70;;
74371;SDS011;62885;51.374;6.170;2024-01-30T08:21:08;8.10;;;4.35;;
74371;SDS011;62885;51.374;6.170;2024-01-30T08:23:34;9.18;;;4.47;;
74371;SDS011;62885;51.374;6.170;2024-01-30T08:25:59;8.80;;;4.25;;
74371;SDS011;62885;51.374;6.170;2024-01-30T08:28:25;7.32;;;4.20;;
74371;SDS011;62885;51.374;6.170;2024-01-30T08:30:51;8.70;;;4.20;;
74371;SDS011;62885;51.374;6.170;2024-01-30T08:33:16;14.52;;;6.32;;
74371;SDS011;62885;51.374;6.170;2024-01-30T08:35:42;11.98;;;5.22;;
74371;SDS011;62885;51.374;6.170;2024-01-30T08:38:07;9.30;;;4.85;;
74371;SDS011;62885;51.374;6.170;2024-01-30T08:40:33;11.95;;;5.22;;
74371;SDS011;62885;51.374;6.170;2024-01-30T08:42:58;15.38;;;5.13;;
74371;SDS011;62885;51.374;6.170;2024-01-30T08:45:24;10.13;;;5.00;;
74371;SDS011;62885;51.374;6.170;2024-01-30T08:47:49;10.77;;;5.00;;
74371;SDS011;62885;51.374;6.170;2024-01-30T08:50:15;10.50;;;4.90;;
74371;SDS011;62885;51.374;6.170;2024-01-30T08:52:40;12.00;;;4.70;;
74371;SDS011;62885;51.374;6.170;2024-01-30T08:55:06;10.73;;;4.88;;
74371;SDS011;62885;51.374;6.170;2024-01-30T08:57:31;12.80;;;4.72;;
74371;SDS011;62885;51.374;6.170;2024-01-30T08:59:57;8.15;;;4.20;;
74371;SDS011;62885;51.374;6.170;2024-01-30T09:02:22;10.13;;;4.50;;
74371;SDS011;62885;51.374;6.170;2024-01-30T09:04:48;14.35;;;5.10;;
74371;SDS011;62885;51.374;6.170;2024-01-30T09:07:13;9.82;;;5.22;;
74371;SDS011;62885;51.374;6.170;2024-01-30T09:09:39;10.23;;;4.60;;
74371;SDS011;62885;51.374;6.170;2024-01-30T09:12:10;10.25;;;4.30;;
74371;SDS011;62885;51.374;6.170;2024-01-30T09:14:37;9.68;;;4.45;;
74371;SDS011;62885;51.374;6.170;2024-01-30T09:17:02;13.90;;;4.70;;
74371;SDS011;62885;51.374;6.170;2024-01-30T09:19:28;8.68;;;4.05;;
74371;SDS011;62885;51.374;6.170;2024-01-30T09:21:53;9.35;;;4.15;;
74371;SDS011;62885;51.374;6.170;2024-01-30T09:24:19;9.05;;;4.75;;
74371;SDS011;62885;51.374;6.170;2024-01-30T09:26:44;12.27;;;4.57;;
74371;SDS011;62885;51.374;6.170;2024-01-30T09:29:10;12.38;;;5.22;;
74371;SDS011;62885;51.374;6.170;2024-01-30T09:31:35;10.13;;;4.45;;
74371;SDS011;62885;51.374;6.170;2024-01-30T09:34:00;9.02;;;4.03;;
74371;SDS011;62885;51.374;6.170;2024-01-30T09:36:26;7.55;;;4.15;;
74371;SDS011;62885;51.374;6.170;2024-01-30T09:38:52;12.10;;;5.95;;
74371;SDS011;62885;51.374;6.170;2024-01-30T09:41:18;10.05;;;5.10;;
74371;SDS011;62885;51.374;6.170;2024-01-30T09:43:45;11.30;;;5.28;;
74371;SDS011;62885;51.374;6.170;2024-01-30T09:46:13;9.20;;;4.85;;
74371;SDS011;62885;51.374;6.170;2024-01-30T09:48:41;9.85;;;3.78;;
74371;SDS011;62885;51.374;6.170;2024-01-30T09:51:10;10.05;;;4.25;;
74371;SDS011;62885;51.374;6.170;2024-01-30T09:53:36;8.98;;;4.15;;
74371;SDS011;62885;51.374;6.170;2024-01-30T09:56:02;7.63;;;3.67;;
74371;SDS011;62885;51.374;6.170;2024-01-30T09:58:29;9.10;;;4.55;;
74371;SDS011;62885;51.374;6.170;2024-01-30T10:00:55;8.60;;;4.03;;
74371;SDS011;62885;51.374;6.170;2024-01-30T10:03:20;8.55;;;3.70;;
74371;SDS011;62885;51.374;6.170;2024-01-30T10:05:50;8.52;;;4.47;;
74371;SDS011;62885;51.374;6.170;2024-01-30T10:08:19;10.18;;;4.50;;
74371;SDS011;62885;51.374;6.170;2024-01-30T10:10:49;7.57;;;3.95;;
74371;SDS011;62885;51.374;6.170;2024-01-30T10:13:15;10.52;;;4.35;;
74371;SDS011;62885;51.374;6.170;2024-01-30T10:15:41;8.27;;;4.05;;
74371;SDS011;62885;51.374;6.170;2024-01-30T10:18:06;8.38;;;4.20;;
74371;SDS011;62885;51.374;6.170;2024-01-30T10:20:35;10.15;;;5.45;;
74371;SDS011;62885;51.374;6.170;2024-01-30T10:23:00;8.18;;;4.28;;
74371;SDS011;62885;51.374;6.170;2024-01-30T10:25:26;10.25;;;3.80;;
74371;SDS011;62885;51.374;6.170;2024-01-30T10:27:54;11.65;;;4.43;;
74371;SDS011;62885;51.374;6.170;2024-01-30T10:30:21;7.80;;;3.83;;
74371;SDS011;62885;51.374;6.170;2024-01-30T10:32:47;8.63;;;4.32;;
74371;SDS011;62885;51.374;6.170;2024-01-30T10:35:12;11.93;;;5.50;;
74371;SDS011;62885;51.374;6.170;2024-01-30T10:37:38;8.82;;;5.05;;
74371;SDS011;62885;51.374;6.170;2024-01-30T10:40:05;8.75;;;3.85;;
74371;SDS011;62885;51.374;6.170;2024-01-30T10:42:33;8.65;;;4.07;;
74371;SDS011;62885;51.374;6.170;2024-01-30T10:45:11;10.80;;;4.25;;
74371;SDS011;62885;51.374;6.170;2024-01-30T10:47:39;10.70;;;4.00;;
74371;SDS011;62885;51.374;6.170;2024-01-30T10:50:07;9.15;;;4.30;;
74371;SDS011;62885;51.374;6.170;2024-01-30T10:52:34;8.98;;;4.40;;
74371;SDS011;62885;51.374;6.170;2024-01-30T10:54:59;9.05;;;3.83;;
74371;SDS011;62885;51.374;6.170;2024-01-30T10:57:26;9.05;;;3.38;;
74371;SDS011;62885;51.374;6.170;2024-01-30T10:59:58;9.18;;;4.25;;
74371;SDS011;62885;51.374;6.170;2024-01-30T11:02:25;7.75;;;4.43;;
74371;SDS011;62885;51.374;6.170;2024-01-30T11:04:55;9.88;;;4.25;;
74371;SDS011;62885;51.374;6.170;2024-01-30T11:07:26;10.15;;;4.18;;
74371;SDS011;62885;51.374;6.170;2024-01-30T11:09:59;9.95;;;4.22;;
74371;SDS011;62885;51.374;6.170;2024-01-30T11:12:28;8.88;;;3.90;;
74371;SDS011;62885;51.374;6.170;2024-01-30T11:15:13;9.63;;;4.95;;
74371;SDS011;62885;51.374;6.170;2024-01-30T11:20:15;12.35;;;3.97;;
74371;SDS011;62885;51.374;6.170;2024-01-30T11:22:54;10.57;;;4.90;;
74371;SDS011;62885;51.374;6.170;2024-01-30T11:25:21;10.40;;;4.70;;
74371;SDS011;62885;51.374;6.170;2024-01-30T11:27:49;11.10;;;4.22;;
74371;SDS011;62885;51.374;6.170;2024-01-30T11:30:24;12.05;;;3.92;;
74371;SDS011;62885;51.374;6.170;2024-01-30T11:33:01;8.13;;;4.43;;
74371;SDS011;62885;51.374;6.170;2024-01-30T11:35:29;7.82;;;4.20;;
74371;SDS011;62885;51.374;6.170;2024-01-30T11:37:57;10.32;;;4.25;;
74371;SDS011;62885;51.374;6.170;2024-01-30T11:40:25;9.45;;;4.20;;
74371;SDS011;62885;51.374;6.170;2024-01-30T11:42:55;8.57;;;4.38;;
74371;SDS011;62885;51.374;6.170;2024-01-30T11:45:24;9.30;;;4.53;;
74371;SDS011;62885;51.374;6.170;2024-01-30T11:47:49;10.45;;;4.85;;
74371;SDS011;62885;51.374;6.170;2024-01-30T11:50:15;10.95;;;4.32;;
74371;SDS011;62885;51.374;6.170;2024-01-30T11:52:41;7.63;;;4.03;;
74371;SDS011;62885;51.374;6.170;2024-01-30T11:55:08;10.02;;;4.10;;
74371;SDS011;62885;51.374;6.170;2024-01-30T11:57:34;9.82;;;4.18;;
74371;SDS011;62885;51.374;6.170;2024-01-30T12:00:03;9.60;;;3.95;;
74371;SDS011;62885;51.374;6.170;2024-01-30T12:02:37;13.63;;;4.60;;
74371;SDS011;62885;51.374;6.170;2024-01-30T12:05:04;9.73;;;4.55;;
74371;SDS011;62885;51.374;6.170;2024-01-30T12:07:34;11.43;;;4.53;;
74371;SDS011;62885;51.374;6.170;2024-01-30T12:09:59;9.13;;;4.30;;
74371;SDS011;62885;51.374;6.170;2024-01-30T12:12:25;15.07;;;5.00;;
74371;SDS011;62885;51.374;6.170;2024-01-30T12:14:52;10.88;;;4.75;;
74371;SDS011;62885;51.374;6.170;2024-01-30T12:17:51;11.85;;;4.68;;
74371;SDS011;62885;51.374;6.170;2024-01-30T12:20:10;9.30;;;4.25;;
74371;SDS011;62885;51.374;6.170;2024-01-30T12:22:42;11.90;;;5.10;;
74371;SDS011;62885;51.374;6.170;2024-01-30T12:25:09;12.75;;;5.38;;
74371;SDS011;62885;51.374;6.170;2024-01-30T12:27:36;11.65;;;5.13;;
74371;SDS011;62885;51.374;6.170;2024-01-30T12:30:08;9.20;;;4.03;;
74371;SDS011;62885;51.374;6.170;2024-01-30T12:32:35;8.27;;;4.40;;
74371;SDS011;62885;51.374;6.170;2024-01-30T12:35:01;9.85;;;4.57;;
74371;SDS011;62885;51.374;6.170;2024-01-30T12:37:27;10.90;;;4.82;;
74371;SDS011;62885;51.374;6.170;2024-01-30T12:39:52;10.30;;;4.25;;
74371;SDS011;62885;51.374;6.170;2024-01-30T12:42:20;9.20;;;4.47;;
74371;SDS011;62885;51.374;6.170;2024-01-30T12:44:47;8.25;;;3.80;;
74371;SDS011;62885;51.374;6.170;2024-01-30T12:47:13;12.32;;;4.28;;
74371;SDS011;62885;51.374;6.170;2024-01-30T12:49:41;12.75;;;4.55;;
74371;SDS011;62885;51.374;6.170;2024-01-30T12:52:07;9.18;;;4.63;;
74371;SDS011;62885;51.374;6.170;2024-01-30T12:54:33;8.38;;;4.10;;
74371;SDS011;62885;51.374;6.170;2024-01-30T12:56:58;9.13;;;4.18;;
74371;SDS011;62885;51.374;6.170;2024-01-30T12:59:24;8.55;;;4.47;;
74371;SDS011;62885;51.374;6.170;2024-01-30T13:01:49;7.30;;;4.05;;
74371;SDS011;62885;51.374;6.170;2024-01-30T13:04:14;8.75;;;4.82;;
74371;SDS011;62885;51.374;6.170;2024-01-30T13:06:40;13.25;;;4.32;;
74371;SDS011;62885;51.374;6.170;2024-01-30T13:09:06;10.68;;;4.05;;
74371;SDS011;62885;51.374;6.170;2024-01-30T13:11:31;10.50;;;3.75;;
74371;SDS011;62885;51.374;6.170;2024-01-30T13:13:56;10.32;;;4.07;;
74371;SDS011;62885;51.374;6.170;2024-01-30T13:16:22;12.82;;;4.50;;
74371;SDS011;62885;51.374;6.170;2024-01-30T13:18:48;9.75;;;4.32;;
74371;SDS011;62885;51.374;6.170;2024-01-30T13:21:13;12.77;;;4.82;;
74371;SDS011;62885;51.374;6.170;2024-01-30T13:23:39;9.85;;;4.18;;
74371;SDS011;62885;51.374;6.170;2024-01-30T13:26:04;10.43;;;5.50;;
74371;SDS011;62885;51.374;6.170;2024-01-30T13:28:29;8.68;;;4.03;;
74371;SDS011;62885;51.374;6.170;2024-01-30T13:30:55;8.95;;;4.05;;
74371;SDS011;62885;51.374;6.170;2024-01-30T13:33:20;9.43;;;3.83;;
74371;SDS011;62885;51.374;6.170;2024-01-30T13:35:45;8.85;;;4.25;;
74371;SDS011;62885;51.374;6.170;2024-01-30T13:38:11;8.35;;;4.05;;
74371;SDS011;62885;51.374;6.170;2024-01-30T13:40:36;8.52;;;4.07;;
74371;SDS011;62885;51.374;6.170;2024-01-30T13:43:01;8.38;;;3.40;;
74371;SDS011;62885;51.374;6.170;2024-01-30T13:45:27;7.85;;;3.10;;
74371;SDS011;62885;51.374;6.170;2024-01-30T13:47:52;8.98;;;3.15;;
74371;SDS011;62885;51.374;6.170;2024-01-30T13:50:19;7.30;;;2.38;;
74371;SDS011;62885;51.374;6.170;2024-01-30T13:52:45;5.13;;;2.15;;
74371;SDS011;62885;51.374;6.170;2024-01-30T13:55:10;5.85;;;2.30;;
74371;SDS011;62885;51.374;6.170;2024-01-30T13:57:36;5.35;;;1.92;;
74371;SDS011;62885;51.374;6.170;2024-01-30T14:00:03;5.28;;;2.58;;
74371;SDS011;62885;51.374;6.170;2024-01-30T14:02:32;6.15;;;2.28;;
74371;SDS011;62885;51.374;6.170;2024-01-30T14:04:57;5.22;;;2.22;;
74371;SDS011;62885;51.374;6.170;2024-01-30T14:07:23;7.00;;;2.10;;
74371;SDS011;62885;51.374;6.170;2024-01-30T14:09:48;6.07;;;2.10;;
74371;SDS011;62885;51.374;6.170;2024-01-30T14:12:14;4.20;;;1.90;;
74371;SDS011;62885;51.374;6.170;2024-01-30T14:14:40;7.03;;;2.10;;
74371;SDS011;62885;51.374;6.170;2024-01-30T14:17:06;5.97;;;1.88;;
74371;SDS011;62885;51.374;6.170;2024-01-30T14:19:32;6.15;;;1.67;;
74371;SDS011;62885;51.374;6.170;2024-01-30T14:21:58;4.60;;;1.75;;
74371;SDS011;62885;51.374;6.170;2024-01-30T14:24:23;8.02;;;1.95;;
74371;SDS011;62885;51.374;6.170;2024-01-30T14:26:49;3.78;;;1.90;;
74371;SDS011;62885;51.374;6.170;2024-01-30T14:29:14;2.58;;;1.20;;
74371;SDS011;62885;51.374;6.170;2024-01-30T14:31:40;4.25;;;1.33;;
74371;SDS011;62885;51.374;6.170;2024-01-30T14:34:06;3.53;;;1.33;;
74371;SDS011;62885;51.374;6.170;2024-01-30T14:36:31;3.83;;;1.30;;
74371;SDS011;62885;51.374;6.170;2024-01-30T14:38:57;3.05;;;1.15;;